Time;durP1;ratioP1;P1;durP2;ratioP2;P2;SDS_P1;SDS_P2;PMS_P1;PMS_P2;Temp;Humidity;BMP_temperature;BMP_pressure;BME280_temperature;BME280_humidity;BME280_pressure;Samples;Min_cycle;Max_cycle;Signal;HPM_P1;HPM_P2
2023/11/24 00:00:59;;;;;;;;;7.67;6.67;;;;;16.37;100.00;101618.31;2096220;28;46275;-59
2023/11/24 00:01:59;;;;;;;;;6.67;5.67;;;;;16.36;100.00;101613.03;2096027;28;46373;-60
2023/11/24 00:02:59;;;;;;;;;6.67;6.67;;;;;16.35;100.00;101609.47;2102331;28;46571;-60
2023/11/24 00:04:00;;;;;;;;;6.00;6.00;;;;;16.35;100.00;101612.16;2105782;28;46776;-59
2023/11/24 00:05:00;;;;;;;;;5.67;5.67;;;;;16.36;100.00;101610.34;2103567;28;46491;-58
2023/11/24 00:06:00;;;;;;;;;6.00;6.00;;;;;16.36;100.00;101605.84;2105617;27;45839;-57
2023/11/24 00:07:03;;;;;;;;;6.33;6.00;;;;;16.35;100.00;101604.09;2105453;28;46730;-58
2023/11/24 00:08:04;;;;;;;;;8.75;7.75;;;;;16.36;100.00;101602.31;2105471;28;46839;-60
2023/11/24 00:09:04;;;;;;;;;7.00;6.33;;;;;16.36;100.00;101597.81;2105024;27;46688;-60
2023/11/24 00:10:07;;;;;;;;;7.33;7.00;;;;;16.35;100.00;101593.38;2104729;28;46430;-61
2023/11/24 00:11:08;;;;;;;;;7.25;7.25;;;;;16.37;100.00;101599.56;2103279;28;46601;-57
2023/11/24 00:12:08;;;;;;;;;6.50;6.50;;;;;16.36;100.00;101589.78;2105285;27;46984;-58
2023/11/24 00:13:09;;;;;;;;;6.33;6.33;;;;;16.36;100.00;101589.78;2105066;28;46789;-60
2023/11/24 00:14:09;;;;;;;;;7.33;6.33;;;;;16.37;100.00;101585.31;2107256;27;46480;-60
2023/11/24 00:15:10;;;;;;;;;6.67;6.67;;;;;16.37;100.00;101586.19;2113824;27;46185;-60
2023/11/24 00:16:10;;;;;;;;;6.67;6.67;;;;;16.39;100.00;101591.50;2104842;27;46800;-59
2023/11/24 00:17:10;;;;;;;;;7.00;7.00;;;;;16.41;100.00;101581.63;2104845;27;46398;-57
2023/11/24 00:18:12;;;;;;;;;6.67;6.67;;;;;16.41;100.00;101574.47;2097689;27;46483;-57
2023/11/24 00:19:15;;;;;;;;;7.50;7.50;;;;;16.43;100.00;101571.72;2101929;28;46570;-57
2023/11/24 00:20:16;;;;;;;;;6.25;6.25;;;;;16.42;100.00;101578.88;2105733;27;46719;-59
2023/11/24 00:21:17;;;;;;;;;7.67;7.33;;;;;16.40;100.00;101586.09;2112544;27;46611;-59
2023/11/24 00:22:17;;;;;;;;;9.75;8.25;;;;;16.38;100.00;101571.84;2108957;27;46616;-57
2023/11/24 00:23:18;;;;;;;;;5.67;5.67;;;;;16.42;100.00;101584.25;2113061;27;46801;-60
2023/11/24 00:24:19;;;;;;;;;6.50;5.75;;;;;16.43;100.00;101590.47;2104547;27;46402;-59
2023/11/24 00:25:19;;;;;;;;;9.00;7.33;;;;;16.43;100.00;101585.13;2105038;27;46249;-59
2023/11/24 00:26:20;;;;;;;;;5.33;5.33;;;;;16.43;100.00;101585.13;2105010;27;46305;-59
2023/11/24 00:27:21;;;;;;;;;7.75;7.75;;;;;16.42;100.00;101583.38;2105295;28;46835;-58
2023/11/24 00:28:21;;;;;;;;;8.67;6.67;;;;;16.42;100.00;101578.88;2103317;27;46474;-59
2023/11/24 00:29:21;;;;;;;;;7.67;6.67;;;;;16.40;100.00;101575.38;2103377;28;46469;-58
2023/11/24 00:30:22;;;;;;;;;7.67;7.67;;;;;16.40;100.00;101577.19;2105132;27;46298;-60
2023/11/24 00:31:25;;;;;;;;;7.00;6.00;;;;;16.41;100.00;101578.94;2105316;27;46824;-59
2023/11/24 00:32:25;;;;;;;;;8.00;7.00;;;;;16.40;100.00;101559.31;2104787;27;46893;-59
2023/11/24 00:33:28;;;;;;;;;5.67;5.67;;;;;16.41;100.00;101557.50;2105365;28;46665;-59
2023/11/24 00:34:30;;;;;;;;;6.25;5.75;;;;;16.40;100.00;101551.28;2103195;28;46311;-60
2023/11/24 00:35:31;;;;;;;;;8.75;6.75;;;;;16.40;100.00;101556.63;2105668;27;46581;-58
2023/11/24 00:36:31;;;;;;;;;10.00;8.33;;;;;16.39;100.00;101549.53;2104410;28;46222;-56
2023/11/24 00:37:31;;;;;;;;;5.00;2.67;;;;;16.39;100.00;101548.66;2104672;28;46365;-60
2023/11/24 00:38:32;;;;;;;;;7.00;7.00;;;;;16.41;100.00;101560.19;2105280;28;46615;-57
2023/11/24 00:39:38;;;;;;;;;7.00;7.00;;;;;16.40;100.00;101547.72;2105397;27;45907;-57
2023/11/24 00:40:41;;;;;;;;;6.75;6.00;;;;;16.39;100.00;101552.22;2105265;28;46187;-59
2023/11/24 00:41:41;;;;;;;;;4.00;3.00;;;;;16.40;100.00;101553.09;2105268;27;46389;-60
2023/11/24 00:42:42;;;;;;;;;7.00;7.00;;;;;16.40;100.00;101553.09;2100016;27;46896;-58
2023/11/24 00:43:43;;;;;;;;;8.00;7.33;;;;;16.41;100.00;101553.03;2097373;28;46381;-59
2023/11/24 00:44:43;;;;;;;;;6.25;6.25;;;;;16.42;100.00;101548.53;2103138;28;46965;-56
2023/11/24 00:45:43;;;;;;;;;13.00;8.67;;;;;16.39;100.00;101544.16;2104605;27;46665;-54
2023/11/24 00:46:44;;;;;;;;;9.67;8.33;;;;;16.39;100.00;101540.63;2104962;27;46873;-58
2023/11/24 00:47:44;;;;;;;;;8.00;7.00;;;;;16.40;100.00;101542.38;2103108;28;47017;-58
2023/11/24 00:48:45;;;;;;;;;6.33;6.33;;;;;16.39;100.00;101551.34;2104278;28;46373;-59
2023/11/24 00:49:47;;;;;;;;;7.33;7.33;;;;;16.42;100.00;101538.69;2105353;27;46692;-58
2023/11/24 00:50:48;;;;;;;;;7.25;7.25;;;;;16.41;100.00;101544.13;2104862;27;46367;-59
2023/11/24 00:51:48;;;;;;;;;7.00;6.00;;;;;16.40;100.00;101543.25;2105102;27;46484;-57
2023/11/24 00:52:48;;;;;;;;;8.00;7.00;;;;;16.40;100.00;101543.25;2104571;27;46806;-57
2023/11/24 00:53:49;;;;;;;;;9.33;7.67;;;;;16.41;100.00;101544.13;2105222;27;46072;-58
2023/11/24 00:54:49;;;;;;;;;7.33;6.33;;;;;16.42;100.00;101536.03;2104765;28;46747;-57
2023/11/24 00:55:50;;;;;;;;;5.00;5.00;;;;;16.44;100.00;101530.63;2105472;27;46467;-57
2023/11/24 00:56:50;;;;;;;;;6.67;6.67;;;;;16.43;100.00;101529.75;2104982;27;46251;-58
2023/11/24 00:57:51;;;;;;;;;7.00;7.00;;;;;16.43;100.00;101540.44;2113717;27;46897;-58
2023/11/24 00:58:51;;;;;;;;;9.00;8.00;;;;;16.43;100.00;101537.78;2108131;27;46390;-56
2023/11/24 00:59:51;;;;;;;;;7.33;5.67;;;;;16.38;100.00;101538.84;2109069;27;47024;-58
2023/11/24 01:00:53;;;;;;;;;6.33;6.33;;;;;16.41;100.00;101536.97;2109737;27;46588;-56
2023/11/24 01:01:54;;;;;;;;;8.25;8.25;;;;;16.42;100.00;101535.16;2104000;27;47089;-57
2023/11/24 01:02:55;;;;;;;;;9.00;9.00;;;;;16.42;100.00;101546.75;2104720;28;46184;-57
2023/11/24 01:03:55;;;;;;;;;7.75;6.50;;;;;16.43;100.00;101548.50;2104671;27;46707;-57
2023/11/24 01:04:55;;;;;;;;;7.33;7.33;;;;;16.43;100.00;101550.28;2105212;28;46562;-57
2023/11/24 01:05:56;;;;;;;;;6.67;6.00;;;;;16.43;100.00;101545.81;2104794;28;45105;-59
2023/11/24 01:06:56;;;;;;;;;7.67;7.00;;;;;16.45;100.00;101548.44;2105004;28;46700;-57
2023/11/24 01:07:58;;;;;;;;;8.33;6.67;;;;;16.44;100.00;101549.38;2105062;28;46299;-60
2023/11/24 01:08:58;;;;;;;;;7.50;7.00;;;;;16.45;100.00;101540.41;2104314;28;47011;-58
2023/11/24 01:09:59;;;;;;;;;6.67;6.67;;;;;16.44;100.00;101535.97;2104444;27;46794;-58
2023/11/24 01:11:01;;;;;;;;;7.33;7.00;;;;;16.45;100.00;101538.59;2105067;27;46403;-57
2023/11/24 01:12:02;;;;;;;;;8.25;7.00;;;;;16.45;100.00;101537.72;2104937;27;46605;-59
2023/11/24 01:13:03;;;;;;;;;8.33;8.33;;;;;16.46;100.00;101535.00;2104472;27;46521;-55
2023/11/24 01:14:04;;;;;;;;;10.75;7.75;;;;;16.46;100.00;101539.47;2096551;28;46299;-56
2023/11/24 01:15:06;;;;;;;;;9.25;7.25;;;;;16.45;100.00;101543.94;2101083;28;45975;-58
2023/11/24 01:16:06;;;;;;;;;7.00;7.00;;;;;16.44;100.00;101549.38;2104846;27;46318;-58
2023/11/24 01:17:07;;;;;;;;;10.00;8.33;;;;;16.46;100.00;101542.16;2104940;27;46625;-55
2023/11/24 01:18:07;;;;;;;;;9.00;8.00;;;;;16.43;100.00;101528.88;2095806;28;46594;-57
2023/11/24 01:19:07;;;;;;;;;10.00;8.33;;;;;16.42;100.00;101530.66;2094664;28;45736;-58
2023/11/24 01:20:09;;;;;;;;;9.33;8.00;;;;;16.44;100.00;101534.16;2104306;28;46370;-56
2023/11/24 01:21:10;;;;;;;;;7.25;6.75;;;;;16.45;100.00;101529.69;2095302;28;46669;-59
2023/11/24 01:22:10;;;;;;;;;7.67;7.67;;;;;16.46;100.00;101534.13;2095557;28;46670;-57
2023/11/24 01:23:10;;;;;;;;;11.33;9.00;;;;;16.47;100.00;101530.50;2101257;28;46393;-58
2023/11/24 01:24:11;;;;;;;;;6.33;6.00;;;;;16.46;100.00;101535.00;2105285;27;46258;-55
2023/11/24 01:25:11;;;;;;;;;10.33;8.67;;;;;16.46;100.00;101526.94;2104861;27;46807;-57
2023/11/24 01:26:12;;;;;;;;;8.33;8.33;;;;;16.46;100.00;101524.28;2105461;27;46229;-59
2023/11/24 01:27:12;;;;;;;;;10.67;9.33;;;;;16.46;100.00;101518.03;2101648;27;46477;-57
2023/11/24 01:28:13;;;;;;;;;8.67;8.67;;;;;16.45;100.00;101521.66;2100326;28;46471;-58
2023/11/24 01:29:13;;;;;;;;;6.67;6.67;;;;;16.37;100.00;101532.59;2104807;27;46246;-59
2023/11/24 01:30:15;;;;;;;;;10.00;7.33;;;;;16.40;100.00;101516.44;2104819;28;46859;-59
2023/11/24 01:31:15;;;;;;;;;7.75;7.00;;;;;16.42;100.00;101521.75;2096192;28;45720;-59
2023/11/24 01:32:16;;;;;;;;;8.33;8.33;;;;;16.41;100.00;101512.84;2104452;28;46661;-58
2023/11/24 01:33:16;;;;;;;;;8.00;8.00;;;;;16.43;100.00;101521.69;2105021;27;46696;-58
2023/11/24 01:34:16;;;;;;;;;12.33;11.67;;;;;16.46;100.00;101512.69;2110313;27;45721;-59
2023/11/24 01:35:18;;;;;;;;;10.67;9.67;;;;;16.44;100.00;101510.06;2102265;28;46236;-57
2023/11/24 01:36:19;;;;;;;;;10.50;9.00;;;;;16.45;100.00;101505.56;2106670;27;45180;-57
2023/11/24 01:37:22;;;;;;;;;11.33;9.67;;;;;16.37;100.00;101499.56;2105783;27;46840;-58
2023/11/24 01:38:23;;;;;;;;;10.25;8.75;;;;;16.33;100.00;101504.16;2104350;28;45691;-59
2023/11/24 01:39:23;;;;;;;;;7.75;7.75;;;;;16.40;100.00;101499.50;2103700;28;46478;-54
2023/11/24 01:40:24;;;;;;;;;10.33;10.33;;;;;16.43;100.00;101504.75;2104057;28;44999;-58
2023/11/24 01:41:24;;;;;;;;;7.33;7.33;;;;;16.42;100.00;101498.53;2104774;28;46905;-57
2023/11/24 01:42:24;;;;;;;;;8.00;7.00;;;;;16.43;100.00;101502.94;2104375;28;46513;-58
2023/11/24 01:43:25;;;;;;;;;7.67;6.33;;;;;16.44;100.00;101506.50;2103253;28;46169;-57
2023/11/24 01:44:27;;;;;;;;;7.00;6.67;;;;;16.46;100.00;101502.84;2104272;28;46462;-58
2023/11/24 01:45:27;;;;;;;;;8.75;8.00;;;;;16.47;100.00;101501.91;2104463;28;46765;-58
2023/11/24 01:46:29;;;;;;;;;8.00;7.00;;;;;16.47;100.00;101503.72;2104389;27;46830;-59
2023/11/24 01:47:29;;;;;;;;;8.00;6.75;;;;;16.48;100.00;101502.78;2104849;27;46928;-59
2023/11/24 01:48:30;;;;;;;;;9.00;7.33;;;;;16.47;100.00;101496.53;2105105;28;46706;-59
2023/11/24 01:49:30;;;;;;;;;8.00;8.00;;;;;16.46;100.00;101492.13;2104694;27;46518;-56
2023/11/24 01:50:30;;;;;;;;;8.33;6.33;;;;;16.43;100.00;101494.91;2104895;27;46265;-59
2023/11/24 01:51:33;;;;;;;;;10.33;9.00;;;;;16.45;100.00;101495.72;2104790;27;46696;-58
2023/11/24 01:52:34;;;;;;;;;8.00;7.25;;;;;16.48;100.00;101494.75;2107086;27;46993;-59
2023/11/24 01:53:34;;;;;;;;;6.75;6.75;;;;;16.48;100.00;101487.59;2113708;27;45360;-57
2023/11/24 01:54:37;;;;;;;;;6.33;6.00;;;;;16.50;100.00;101495.56;2107209;27;46065;-57
2023/11/24 01:55:37;;;;;;;;;7.00;6.75;;;;;16.50;100.00;101498.25;2104806;27;46776;-57
2023/11/24 01:56:38;;;;;;;;;6.67;6.67;;;;;16.50;100.00;101490.19;2105021;27;46171;-58
2023/11/24 01:57:40;;;;;;;;;7.67;5.67;;;;;16.50;100.00;101498.25;2105035;27;46115;-57
2023/11/24 01:58:40;;;;;;;;;9.00;9.00;;;;;16.51;100.00;101501.78;2104416;28;46209;-55
2023/11/24 01:59:40;;;;;;;;;7.00;7.00;;;;;16.49;100.00;101496.50;2107478;27;46610;-58
2023/11/24 02:00:41;;;;;;;;;8.33;7.67;;;;;16.48;100.00;101498.28;2109861;27;46277;-57
2023/11/24 02:01:42;;;;;;;;;9.00;8.00;;;;;16.47;100.00;101488.50;2105013;27;46728;-58
2023/11/24 02:02:43;;;;;;;;;7.75;7.75;;;;;16.48;100.00;101500.09;2104739;27;45880;-56
2023/11/24 02:03:43;;;;;;;;;8.67;6.67;;;;;16.48;100.00;101497.41;2105880;27;46695;-59
2023/11/24 02:04:43;;;;;;;;;4.67;4.00;;;;;16.48;100.00;101502.78;2104634;27;46182;-59
2023/11/24 02:05:44;;;;;;;;;7.33;7.33;;;;;16.48;100.00;101505.47;2104428;27;46873;-57
2023/11/24 02:06:44;;;;;;;;;6.33;6.33;;;;;16.47;100.00;101501.91;2104254;28;46697;-58
2023/11/24 02:07:45;;;;;;;;;9.00;9.00;;;;;16.45;100.00;101498.41;2104249;28;46338;-56
2023/11/24 02:08:46;;;;;;;;;8.67;7.67;;;;;16.44;100.00;101493.97;2104570;27;46869;-58
2023/11/24 02:09:46;;;;;;;;;11.00;8.25;;;;;16.42;100.00;101500.31;2105385;27;46365;-59
2023/11/24 02:10:47;;;;;;;;;7.33;7.33;;;;;16.45;100.00;101497.53;2100620;27;46179;-57
2023/11/24 02:11:47;;;;;;;;;8.67;8.00;;;;;16.45;100.00;101497.53;2104479;28;46104;-59
2023/11/24 02:12:47;;;;;;;;;8.33;7.00;;;;;16.46;100.00;101497.47;2104588;28;46677;-58
2023/11/24 02:13:51;;;;;;;;;9.67;7.33;;;;;16.47;100.00;101493.00;2104385;28;46511;-58
2023/11/24 02:14:51;;;;;;;;;8.25;8.25;;;;;16.40;100.00;101495.03;2104973;27;46763;-60
2023/11/24 02:15:51;;;;;;;;;7.67;6.67;;;;;16.44;100.00;101501.16;2104718;28;47056;-58
2023/11/24 02:16:52;;;;;;;;;6.33;5.00;;;;;16.46;100.00;101499.28;2104642;28;46743;-58
2023/11/24 02:17:52;;;;;;;;;11.00;7.33;;;;;16.47;100.00;101501.03;2103903;28;46878;-59
2023/11/24 02:18:52;;;;;;;;;7.33;6.67;;;;;16.45;100.00;101498.41;2103982;28;46619;-59
2023/11/24 02:19:56;;;;;;;;;9.33;9.33;;;;;16.45;100.00;101493.06;2104384;28;46296;-59
2023/11/24 02:21:00;;;;;;;;;6.25;6.25;;;;;16.45;100.00;101486.81;2104657;27;46309;-58
2023/11/24 02:22:00;;;;;;;;;9.50;8.25;;;;;16.46;100.00;101486.75;2104459;27;46921;-59
2023/11/24 02:23:00;;;;;;;;;8.00;8.00;;;;;16.47;100.00;101480.47;2108743;27;46249;-59
2023/11/24 02:24:01;;;;;;;;;5.67;4.67;;;;;16.49;100.00;101478.59;2105541;28;46246;-58
2023/11/24 02:25:01;;;;;;;;;6.33;6.33;;;;;16.49;100.00;101465.22;2108716;27;46487;-57
2023/11/24 02:26:01;;;;;;;;;7.67;7.67;;;;;16.49;100.00;101469.69;2093740;28;46170;-59
2023/11/24 02:27:02;;;;;;;;;7.33;6.33;;;;;16.51;100.00;101469.63;2093183;28;46297;-58
2023/11/24 02:28:03;;;;;;;;;6.75;6.75;;;;;16.50;100.00;101466.09;2104687;27;46746;-59
2023/11/24 02:29:03;;;;;;;;;8.00;8.00;;;;;16.49;100.00;101462.53;2104462;28;46360;-59
2023/11/24 02:30:05;;;;;;;;;5.67;5.67;;;;;16.48;100.00;101459.91;2106528;27;46545;-59
2023/11/24 02:31:07;;;;;;;;;7.50;7.50;;;;;16.49;100.00;101470.56;2106093;27;46493;-59
2023/11/24 02:32:08;;;;;;;;;7.00;7.00;;;;;16.49;100.00;101462.53;2105708;27;46818;-58
2023/11/24 02:33:09;;;;;;;;;9.67;7.67;;;;;16.48;100.00;101457.22;2104788;27;46824;-59
2023/11/24 02:34:09;;;;;;;;;8.00;8.00;;;;;16.43;100.00;101452.03;2107215;27;47054;-59
2023/11/24 02:35:09;;;;;;;;;9.67;8.00;;;;;16.44;100.00;101455.59;2106116;27;46726;-59
2023/11/24 02:36:17;;;;;;;;;9.33;7.33;;;;;16.48;100.00;101451.88;2106065;27;46379;-58
2023/11/24 02:37:17;;;;;;;;;8.75;7.25;;;;;16.48;100.00;101446.50;2105959;27;47057;-58
2023/11/24 02:38:17;;;;;;;;;7.00;6.67;;;;;16.48;100.00;101457.22;2106191;28;46676;-58
2023/11/24 02:39:18;;;;;;;;;8.67;8.33;;;;;16.49;100.00;101445.59;2105020;28;46256;-59
2023/11/24 02:40:18;;;;;;;;;6.00;6.00;;;;;16.49;100.00;101449.13;2105564;28;46494;-58
2023/11/24 02:41:20;;;;;;;;;8.00;8.00;;;;;16.48;100.00;101438.47;2105918;28;46715;-59
2023/11/24 02:42:20;;;;;;;;;10.25;10.25;;;;;16.48;100.00;101435.81;2105796;27;46304;-59
2023/11/24 02:43:21;;;;;;;;;10.00;9.00;;;;;16.49;100.00;101432.19;2105875;28;46812;-58
2023/11/24 02:44:21;;;;;;;;;6.33;6.00;;;;;16.49;100.00;101430.38;2104434;28;46545;-58
2023/11/24 02:45:21;;;;;;;;;11.67;7.67;;;;;16.49;100.00;101441.09;2105600;28;46386;-58
2023/11/24 02:46:22;;;;;;;;;10.33;8.33;;;;;16.49;100.00;101433.06;2105967;28;46389;-59
2023/11/24 02:47:22;;;;;;;;;7.67;7.00;;;;;16.49;100.00;101429.50;2103083;28;46805;-57
2023/11/24 02:48:22;;;;;;;;;11.00;9.00;;;;;16.51;100.00;101422.28;2113263;27;46366;-58
2023/11/24 02:49:23;;;;;;;;;6.33;5.67;;;;;16.52;100.00;101409.81;2108126;27;46251;-57
2023/11/24 02:50:23;;;;;;;;;7.67;7.67;;;;;16.51;100.00;101416.94;2105951;28;46355;-58
2023/11/24 02:51:24;;;;;;;;;8.67;7.33;;;;;16.49;100.00;101410.75;2105797;27;46426;-59
2023/11/24 02:52:24;;;;;;;;;9.00;7.00;;;;;16.47;100.00;101408.13;2106217;27;46795;-58
2023/11/24 02:53:25;;;;;;;;;7.33;6.67;;;;;16.48;100.00;101414.38;2105800;28;46636;-59
2023/11/24 02:54:25;;;;;;;;;9.33;8.67;;;;;16.47;100.00;101416.16;2105465;28;46355;-56
2023/11/24 02:55:26;;;;;;;;;9.00;8.33;;;;;16.48;100.00;101409.88;2097267;28;46461;-59
2023/11/24 02:56:27;;;;;;;;;8.00;7.75;;;;;16.50;100.00;101412.50;2097345;28;46603;-59
2023/11/24 02:57:28;;;;;;;;;8.00;8.00;;;;;16.51;100.00;101408.03;2104979;27;46464;-59
2023/11/24 02:58:29;;;;;;;;;8.00;8.00;;;;;16.49;100.00;101403.59;2106337;27;46534;-60
2023/11/24 02:59:29;;;;;;;;;7.75;6.25;;;;;16.49;100.00;101402.72;2107617;27;46620;-58
2023/11/24 03:00:30;;;;;;;;;9.00;8.33;;;;;16.48;100.00;101401.84;2105531;27;46551;-58
2023/11/24 03:01:30;;;;;;;;;9.67;9.67;;;;;16.48;100.00;101399.16;2105914;28;46285;-56
2023/11/24 03:02:31;;;;;;;;;11.00;8.33;;;;;16.37;100.00;101400.47;2106057;27;46141;-58
2023/11/24 03:03:31;;;;;;;;;6.67;6.67;;;;;16.25;100.00;101412.47;2105359;27;46495;-58
2023/11/24 03:04:32;;;;;;;;;6.33;6.33;;;;;16.28;100.00;101403.50;2105938;27;46789;-57
2023/11/24 03:05:34;;;;;;;;;8.75;6.25;;;;;16.27;100.00;101413.31;2104436;28;46348;-58
2023/11/24 03:06:42;;;;;;;;;7.00;7.00;;;;;16.27;100.00;101402.63;2104967;28;46454;-59
2023/11/24 03:07:42;;;;;;;;;6.75;6.75;;;;;16.17;100.00;101403.84;2105744;28;46854;-58
2023/11/24 03:08:42;;;;;;;;;8.67;7.00;;;;;16.21;100.00;101402.81;2105839;27;46390;-59
2023/11/24 03:09:42;;;;;;;;;8.33;7.67;;;;;16.24;100.00;101401.81;2106039;27;45908;-60
2023/11/24 03:10:43;;;;;;;;;7.67;7.67;;;;;16.26;100.00;101390.16;2105314;27;46702;-55
2023/11/24 03:11:44;;;;;;;;;10.75;7.75;;;;;16.28;100.00;101399.00;2105744;27;46493;-58
2023/11/24 03:12:44;;;;;;;;;6.67;6.67;;;;;16.29;100.00;101400.75;2106178;28;45274;-58
2023/11/24 03:13:44;;;;;;;;;7.67;6.67;;;;;16.28;100.00;101399.00;2109689;27;46665;-58
2023/11/24 03:14:47;;;;;;;;;4.67;4.67;;;;;16.30;100.00;101390.91;2105877;28;46680;-59
2023/11/24 03:15:47;;;;;;;;;6.00;6.00;;;;;16.29;100.00;101394.53;2100003;28;46651;-60
2023/11/24 03:16:47;;;;;;;;;7.00;7.00;;;;;16.27;100.00;101389.22;2105583;28;46222;-56
2023/11/24 03:17:48;;;;;;;;;8.67;7.33;;;;;16.28;100.00;101387.41;2105690;28;46541;-58
2023/11/24 03:18:48;;;;;;;;;6.00;6.00;;;;;16.27;100.00;101389.22;2105860;28;45141;-59
2023/11/24 03:19:48;;;;;;;;;6.67;6.67;;;;;16.28;100.00;101382.06;2105937;27;46754;-59
2023/11/24 03:20:49;;;;;;;;;7.67;7.00;;;;;16.30;100.00;101382.88;2105668;27;46295;-59
2023/11/24 03:21:49;;;;;;;;;8.33;7.67;;;;;16.30;100.00;101377.53;2105944;28;46226;-58
2023/11/24 03:22:49;;;;;;;;;5.67;5.67;;;;;16.42;100.00;101387.81;2105600;28;46473;-59
2023/11/24 03:23:50;;;;;;;;;7.67;5.33;;;;;16.45;100.00;101385.88;2105144;28;46996;-59
2023/11/24 03:24:50;;;;;;;;;9.33;8.00;;;;;16.33;100.00;101378.28;2105054;28;46315;-58
2023/11/24 03:25:50;;;;;;;;;6.67;6.67;;;;;16.35;100.00;101380.91;2106111;27;46680;-57
2023/11/24 03:26:51;;;;;;;;;8.00;8.00;;;;;16.46;100.00;101376.91;2105118;28;46517;-58
2023/11/24 03:27:51;;;;;;;;;7.33;7.33;;;;;16.46;100.00;101376.03;2106098;27;46537;-56
2023/11/24 03:28:52;;;;;;;;;8.00;6.67;;;;;16.46;100.00;101376.03;2105440;27;46161;-58
2023/11/24 03:29:52;;;;;;;;;6.33;6.33;;;;;16.37;100.00;101377.22;2105741;28;46516;-57
2023/11/24 03:30:52;;;;;;;;;6.00;6.00;;;;;16.45;100.00;101367.13;2097107;27;46150;-58
2023/11/24 03:31:53;;;;;;;;;6.00;5.67;;;;;16.46;100.00;101368.88;2102526;28;46566;-58
2023/11/24 03:32:53;;;;;;;;;6.67;6.67;;;;;16.47;100.00;101367.06;2105338;27;46491;-58
2023/11/24 03:33:53;;;;;;;;;7.67;6.00;;;;;16.47;100.00;101365.28;2105352;27;48931;-57
2023/11/24 03:34:55;;;;;;;;;6.33;6.33;;;;;16.45;100.00;101368.94;2105303;28;46361;-58
2023/11/24 03:35:55;;;;;;;;;6.00;5.00;;;;;16.47;100.00;101359.03;2105085;28;46404;-58
2023/11/24 03:36:56;;;;;;;;;6.00;6.00;;;;;16.47;100.00;101362.59;2106938;27;46805;-57
2023/11/24 03:37:56;;;;;;;;;7.00;6.50;;;;;16.47;100.00;101365.28;2104945;28;45980;-58
2023/11/24 03:38:56;;;;;;;;;7.00;6.00;;;;;16.47;100.00;101359.91;2097010;28;46210;-57
2023/11/24 03:39:57;;;;;;;;;3.33;3.33;;;;;16.47;100.00;101361.72;2102647;28;46262;-59
2023/11/24 03:40:58;;;;;;;;;4.33;4.00;;;;;16.48;100.00;101371.50;2105825;28;47057;-60
2023/11/24 03:41:58;;;;;;;;;7.00;7.00;;;;;16.47;100.00;101369.75;2105364;27;46299;-58
2023/11/24 03:43:01;;;;;;;;;6.67;6.67;;;;;16.46;100.00;101363.53;2107587;27;46468;-58
2023/11/24 03:44:02;;;;;;;;;6.00;6.00;;;;;16.46;100.00;101354.59;2114038;27;46794;-58
2023/11/24 03:45:03;;;;;;;;;6.67;6.00;;;;;16.45;100.00;101356.41;2108159;27;46489;-58
2023/11/24 03:46:03;;;;;;;;;7.33;5.67;;;;;16.45;100.00;101360.91;2104467;28;46352;-59
2023/11/24 03:47:03;;;;;;;;;5.00;5.00;;;;;16.44;100.00;101362.72;2096908;28;46121;-56
2023/11/24 03:48:04;;;;;;;;;9.67;7.00;;;;;16.43;100.00;101360.97;2087358;28;46313;-57
2023/11/24 03:49:04;;;;;;;;;4.67;4.00;;;;;16.43;100.00;101357.41;2082859;28;46478;-57
2023/11/24 03:50:05;;;;;;;;;6.67;6.67;;;;;16.44;100.00;101353.78;2094280;28;46735;-60
2023/11/24 03:51:06;;;;;;;;;6.00;5.67;;;;;16.44;100.00;101354.66;2104804;28;46182;-59
2023/11/24 03:52:06;;;;;;;;;7.33;5.33;;;;;16.45;100.00;101352.88;2105366;27;46403;-59
2023/11/24 03:53:07;;;;;;;;;8.00;6.33;;;;;16.46;100.00;101341.22;2105677;27;46822;-58
2023/11/24 03:54:07;;;;;;;;;7.00;6.33;;;;;16.45;100.00;101348.38;2105689;28;46556;-58
2023/11/24 03:55:09;;;;;;;;;3.33;3.33;;;;;16.46;100.00;101343.91;2105359;27;46601;-58
2023/11/24 03:56:09;;;;;;;;;6.00;6.00;;;;;16.46;100.00;101346.56;2104765;28;46693;-59
2023/11/24 03:57:09;;;;;;;;;5.33;5.33;;;;;16.46;100.00;101344.75;2105134;28;46220;-59
2023/11/24 03:58:10;;;;;;;;;4.33;4.33;;;;;16.47;100.00;101345.63;2099295;27;46554;-56
2023/11/24 03:59:10;;;;;;;;;7.33;6.67;;;;;16.49;100.00;101346.44;2089650;28;46598;-58
2023/11/24 04:00:11;;;;;;;;;5.33;5.33;;;;;16.47;100.00;101343.84;2104457;28;46527;-59
2023/11/24 04:01:15;;;;;;;;;5.00;5.00;;;;;16.49;100.00;101338.41;2108937;27;46469;-59
2023/11/24 04:02:15;;;;;;;;;6.75;5.00;;;;;16.48;100.00;101331.31;2105294;27;46353;-57
2023/11/24 04:03:15;;;;;;;;;6.67;5.67;;;;;16.47;100.00;101333.13;2103869;28;45606;-57
2023/11/24 04:04:16;;;;;;;;;5.67;5.67;;;;;16.46;100.00;101330.50;2087385;28;46654;-59
2023/11/24 04:05:16;;;;;;;;;6.33;5.67;;;;;16.47;100.00;101322.41;2103072;28;46401;-59
2023/11/24 04:06:17;;;;;;;;;6.33;5.33;;;;;16.48;100.00;101316.09;2105731;28;46559;-58
2023/11/24 04:07:18;;;;;;;;;5.50;5.50;;;;;16.41;100.00;101322.63;2105562;27;46500;-58
2023/11/24 04:08:18;;;;;;;;;5.67;5.67;;;;;16.47;100.00;101319.72;2105145;27;46411;-57
2023/11/24 04:09:18;;;;;;;;;5.67;4.67;;;;;16.48;100.00;101328.63;2105489;27;46069;-58
2023/11/24 04:10:20;;;;;;;;;5.67;5.33;;;;;16.47;100.00;101322.41;2105616;28;46381;-57
2023/11/24 04:11:20;;;;;;;;;8.25;6.50;;;;;16.48;100.00;101324.16;2099548;27;46668;-59
2023/11/24 04:12:21;;;;;;;;;3.67;3.33;;;;;16.49;100.00;101331.25;2105474;27;46544;-59
2023/11/24 04:13:21;;;;;;;;;6.00;5.67;;;;;16.49;100.00;101335.75;2105736;28;46738;-58
2023/11/24 04:14:22;;;;;;;;;5.33;4.67;;;;;16.51;100.00;101335.69;2098701;27;46661;-59
2023/11/24 04:15:23;;;;;;;;;6.00;5.00;;;;;16.50;100.00;101345.53;2098631;28;46650;-57
2023/11/24 04:16:23;;;;;;;;;6.00;5.00;;;;;16.49;100.00;101338.41;2105594;27;46607;-60
2023/11/24 04:17:23;;;;;;;;;7.33;7.33;;;;;16.49;100.00;101336.59;2105184;28;46587;-57
2023/11/24 04:18:24;;;;;;;;;5.67;5.00;;;;;16.51;100.00;101328.50;2105719;27;46533;-58
2023/11/24 04:19:25;;;;;;;;;8.75;6.50;;;;;16.51;100.00;101324.97;2105354;27;46303;-57
2023/11/24 04:20:25;;;;;;;;;6.33;6.33;;;;;16.51;100.00;101333.00;2105475;27;46752;-60
2023/11/24 04:21:25;;;;;;;;;3.00;3.00;;;;;16.51;100.00;101339.22;2105900;28;46610;-58
2023/11/24 04:22:26;;;;;;;;;4.67;4.67;;;;;16.52;100.00;101332.97;2104481;27;46420;-58
2023/11/24 04:23:26;;;;;;;;;8.33;6.33;;;;;16.53;100.00;101334.72;2105053;27;46243;-60
2023/11/24 04:24:26;;;;;;;;;5.67;5.67;;;;;16.56;100.00;101331.03;2105043;27;46693;-57
2023/11/24 04:25:27;;;;;;;;;5.67;5.67;;;;;16.58;100.00;101331.84;2104993;27;46734;-57
2023/11/24 04:26:27;;;;;;;;;6.67;6.00;;;;;16.60;100.00;101335.34;2100765;28;46286;-59
2023/11/24 04:27:27;;;;;;;;;6.67;6.67;;;;;16.60;100.00;101336.22;2105301;27;46199;-59
2023/11/24 04:28:28;;;;;;;;;5.33;5.33;;;;;16.60;100.00;101335.34;2105035;27;46846;-58
2023/11/24 04:29:28;;;;;;;;;3.00;3.00;;;;;16.60;100.00;101343.38;2105255;28;46298;-57
2023/11/24 04:30:28;;;;;;;;;6.00;5.00;;;;;16.60;100.00;101341.59;2105350;27;46745;-57
2023/11/24 04:31:30;;;;;;;;;4.67;4.67;;;;;16.61;100.00;101332.59;2105342;28;46070;-58
2023/11/24 04:32:30;;;;;;;;;5.75;5.25;;;;;16.61;100.00;101337.09;2105210;27;46728;-58
2023/11/24 04:33:31;;;;;;;;;3.00;3.00;;;;;16.61;100.00;101337.09;2105912;27;46374;-59
2023/11/24 04:34:31;;;;;;;;;5.00;5.00;;;;;16.63;100.00;101330.75;2105160;27;46464;-57
2023/11/24 04:35:32;;;;;;;;;8.67;6.67;;;;;16.62;100.00;101336.16;2104531;28;46475;-56
2023/11/24 04:36:32;;;;;;;;;7.67;7.67;;;;;16.63;100.00;101338.78;2104493;28;46887;-59
2023/11/24 04:37:32;;;;;;;;;6.67;6.67;;;;;16.64;100.00;101337.88;2104606;28;46448;-58
2023/11/24 04:38:32;;;;;;;;;7.33;6.33;;;;;16.64;100.00;101334.28;2104865;28;46467;-57
2023/11/24 04:39:33;;;;;;;;;5.67;5.67;;;;;16.64;100.00;101331.63;2103586;27;46130;-58